In Ko Pah (444) Station Data

Red Flag Warning: No
Fire Weather Zone: 262
SDGE Region: Mountain Empire
Lat/Lon: 32.636/-116.118

Observations

Time Wind Speed/Gust Temp(F) RH Fuel Moist Fuel Temp(F) Dewpt(F) Tmax(F) Tmin(F) Accum Precip 10-min Precip SL Press(mb)
4/29 11:50pm 218 2 G 4 55° 18% - - 12° 69.1° 54.1° - - 1020.0
4/29 11:40pm 245 1 G 2 55° 18% - - 12° 69.1° 54.1° - - 1020.0
4/29 11:30pm 224 2 G 4 55° 18% - - 12° 69.1° 54.1° - - 1020.0
4/29 11:20pm 226 1 G 2 55° 17% - - 12° 69.1° 54.1° - - 1020.0
4/29 11:10pm 215 3 G 5 56° 17% - - 12° 69.1° 54.1° - - 1020.0
4/29 11:00pm 232 3 G 4 56° 17% - - 11° 69.1° 54.1° - - 1020.0
4/29 10:50pm 209 2 G 4 57° 16% - - 11° 69.1° 54.1° - - 1020.0
4/29 10:40pm 216 2 G 4 56° 17% - - 11° 69.1° 54.1° - - 1020.0
4/29 10:30pm 209 2 G 5 57° 16% - - 11° 69.1° 54.1° - - 1020.0
4/29 10:20pm 218 3 G 6 56° 16% - - 11° 69.1° 54.1° - - 1020.0
4/29 10:10pm 45 1 G 2 57° 16% - - 11° 69.1° 54.1° - - 1019.0
4/29 10:00pm 199 1 G 2 57° 15% - - 10° 69.1° 54.1° - - 1019.0
4/29 9:50pm 119 1 G 4 59° 14% - - 10° 69.1° 54.1° - - 1019.0
4/29 9:40pm 197 4 G 5 59° 14% - - 10° 69.1° 54.1° - - 1019.0
4/29 9:30pm 216 3 G 5 59° 13% - - 69.1° 54.1° - - 1019.0
4/29 9:20pm 234 1 G 5 60° 13% - - 69.1° 54.1° - - 1018.0
4/29 9:10pm 219 1 G 2 60° 13% - - 69.1° 54.1° - - 1018.0
4/29 9:00pm 292 0 G 1 60° 13% - - 69.1° 54.1° - - 1018.0
4/29 8:50pm 334 0 G 1 61° 12% - - 69.1° 54.1° - - 1017.0
4/29 8:40pm 126 1 G 2 62° 12% - - 69.1° 54.1° - - 1017.0
4/29 8:30pm 90 1 G 2 62° 12% - - 69.1° 54.1° - - 1017.0
4/29 8:20pm 77 1 G 3 63° 11% - - 69.1° 54.1° - - 1017.0
4/29 8:10pm 65 2 G 5 64° 11% - - 69.1° 54.1° - - 1016.0
4/29 8:00pm 63 3 G 6 64° 11% - - 69.1° 54.1° - - 1016.0
4/29 7:50pm 77 3 G 6 64° 11% - - 69.1° 54.1° - - 1016.0
4/29 7:40pm 73 5 G 9 65° 11% - - 69.1° 54.1° - - 1015.0
4/29 7:30pm 57 5 G 8 66° 11% - - 69.1° 54.1° - - 1015.0
4/29 7:20pm 57 7 G 12 66° 10% - - 69.1° 54.1° - - 1015.0
4/29 7:10pm 50 6 G 10 67° 10% - - 69.1° 54.1° - - 1015.0
4/29 7:00pm 58 7 G 12 67° 10% - - 69.1° 54.1° - - 1015.0
4/29 6:50pm 55 9 G 16 67° 10% - - 10° 69.1° 54.1° - - 1015.0
4/29 6:40pm 57 10 G 14 67° 10% - - 10° 69.1° 54.1° - - 1015.0
4/29 6:30pm 58 9 G 14 67° 10% - - 69.1° 54.1° - - 1015.0
4/29 6:20pm 47 9 G 14 68° 10% - - 69.1° 54.1° - - 1015.0
4/29 6:10pm 45 8 G 13 68° 10% - - 69.1° 54.1° - - 1014.0
4/29 6:00pm 63 11 G 16 68° 10% - - 69.1° 54.1° - - 1014.0
4/29 5:50pm 58 11 G 17 68° 10% - - 69.1° 54.1° - - 1014.0
4/29 5:40pm 48 11 G 17 68° 10% - - 69.1° 54.1° - - 1014.0
4/29 5:30pm 60 9 G 16 68° 10% - - 69.1° 54.1° - - 1014.0
4/29 5:20pm 52 12 G 17 68° 10% - - 69.1° 54.1° - - 1014.0
4/29 5:10pm 58 10 G 18 68° 10% - - 69.1° 54.1° - - 1014.0
4/29 5:00pm 33 9 G 15 68° 10% - - 69.1° 54.1° - - 1014.0
4/29 4:50pm 48 10 G 18 68° 10% - - 69.1° 54.1° - - 1014.0
4/29 4:40pm 61 9 G 15 68° 10% - - 68.4° 54.1° - - 1015.0
4/29 4:30pm 51 11 G 18 68° 10% - - 68.3° 54.1° - - 1015.0
4/29 4:20pm 37 10 G 17 68° 10% - - 68.3° 54.1° - - 1015.0
4/29 4:10pm 41 11 G 18 68° 10% - - 10° 68.1° 54.1° - - 1014.0
4/29 4:00pm 62 13 G 21 67° 11% - - 10° 67.8° 54.1° - - 1015.0
4/29 3:50pm 67 12 G 18 67° 11% - - 11° 67.8° 54.1° - - 1015.0
4/29 3:40pm 61 12 G 19 66° 11% - - 11° 67.5° 54.1° - - 1015.0
4/29 3:30pm 50 12 G 20 66° 11% - - 11° 67.5° 54.1° - - 1015.0
4/29 3:20pm 46 12 G 21 67° 11% - - 11° 67.5° 54.1° - - 1015.0
4/29 3:10pm 53 12 G 22 66° 12% - - 12° 67.1° 54.1° - - 1015.0
4/29 3:00pm 52 11 G 20 66° 12% - - 11° 66.3° 54.1° - - 1015.0
4/29 2:50pm 49 13 G 21 65° 12% - - 12° 65.8° 54.1° - - 1016.0
4/29 2:40pm 43 10 G 22 65° 12% - - 12° 65.8° 54.1° - - 1016.0
4/29 2:30pm 54 15 G 23 65° 12% - - 12° 65.6° 54.1° - - 1016.0
4/29 2:20pm 57 14 G 22 65° 13% - - 12° 65.5° 54.1° - - 1016.0
4/29 2:10pm 59 13 G 22 65° 13% - - 12° 65.3° 54.1° - - 1016.0
4/29 2:00pm 59 14 G 23 64° 13% - - 12° 65° 54.1° - - 1016.0
4/29 1:50pm 55 15 G 29 65° 13% - - 12° 65° 54.1° - - 1016.0
4/29 1:40pm 58 17 G 29 64° 13% - - 12° 65° 54.1° - - 1016.0
4/29 1:30pm 54 15 G 25 64° 13% - - 12° 65° 54.1° - - 1016.0
4/29 1:20pm 54 14 G 22 64° 13% - - 13° 64.8° 54.1° - - 1016.0
4/29 1:10pm 49 15 G 25 64° 13% - - 12° 64.4° 54.1° - - 1016.0
4/29 1:00pm 58 18 G 26 63° 13% - - 12° 64.4° 54.1° - - 1016.0
4/29 12:50pm 51 14 G 26 63° 13% - - 12° 64.4° 54.1° - - 1016.0
4/29 12:40pm 58 14 G 22 62° 13% - - 11° 63.2° 54.1° - - 1016.0
4/29 12:30pm 50 14 G 24 62° 13% - - 11° 63.2° 54.1° - - 1016.0
4/29 12:20pm 48 14 G 20 62° 13% - - 11° 62.8° 54.1° - - 1016.0
4/29 12:10pm 56 15 G 25 61° 13% - - 11° 62.3° 54.1° - - 1017.0
4/29 12:00pm 58 13 G 21 61° 14% - - 11° 62.3° 54.1° - - 1017.0
4/29 11:50am 62 13 G 21 61° 14% - - 11° 62.3° 54.1° - - 1017.0
4/29 11:40am 57 14 G 24 61° 14% - - 11° 62.3° 54.1° - - 1017.0
4/29 11:30am 55 15 G 24 61° 14% - - 11° 62.3° 54.1° - - 1017.0
4/29 11:20am 62 14 G 21 61° 14% - - 10° 62.3° 54.1° - - 1017.0
4/29 11:10am 52 13 G 22 60° 13% - - 10° 62.3° 54.1° - - 1017.0
4/29 11:00am 46 14 G 20 60° 14% - - 10° 62.3° 54.1° - - 1017.0
4/29 10:50am 49 12 G 19 60° 14% - - 10° 62.3° 54.1° - - 1017.0
4/29 10:40am 60 14 G 24 59° 14% - - 10° 62.3° 54.1° - - 1017.0
4/29 10:30am 54 14 G 25 59° 14% - - 10° 62.3° 54.1° - - 1017.0
4/29 10:20am 60 14 G 20 59° 14% - - 10° 62.3° 54.1° - - 1017.0
4/29 10:10am 49 14 G 23 59° 14% - - 10° 62.3° 54.1° - - 1017.0
4/29 10:00am 50 14 G 25 59° 14% - - 62.3° 54.1° - - 1017.0
4/29 9:50am 58 15 G 26 58° 14% - - 62.3° 54.1° - - 1017.0
4/29 9:40am 58 16 G 23 58° 14% - - 62.3° 54.1° - - 1017.0
4/29 9:30am 52 15 G 21 58° 14% - - 62.3° 54.1° - - 1017.0
4/29 9:20am 58 16 G 25 57° 14% - - 62.3° 54.1° - - 1017.0
4/29 9:10am 57 14 G 21 57° 14% - - 62.3° 54.1° - - 1017.0
4/29 9:00am 50 14 G 22 57° 14% - - 62.3° 54.1° - - 1017.0
4/29 8:50am 55 15 G 24 57° 14% - - 62.3° 54.1° - - 1017.0
4/29 8:40am 50 15 G 23 57° 14% - - 62.3° 54.1° - - 1017.0
4/29 8:30am 57 16 G 27 56° 14% - - 62.3° 54.1° - - 1017.0
4/29 8:20am 57 16 G 23 56° 14% - - 62.3° 54.1° - - 1017.0
4/29 8:10am 60 15 G 22 56° 14% - - 62.3° 54.1° - - 1017.0
4/29 8:00am 59 15 G 25 56° 14% - - 62.3° 54.1° - - 1017.0
4/29 7:50am 60 15 G 25 56° 14% - - 62.3° 54.1° - - 1017.0
4/29 7:40am 61 14 G 22 55° 14% - - 62.3° 54.1° - - 1017.0
4/29 7:30am 59 14 G 20 55° 14% - - 62.3° 54.1° - - 1017.0
4/29 7:20am 56 13 G 20 55° 15% - - 62.3° 54.1° - - 1017.0
4/29 7:10am 56 13 G 20 55° 15% - - 62.3° 54.1° - - 1017.0
4/29 7:00am 58 14 G 21 54° 16% - - 62.3° 54.1° - - 1017.0
4/29 6:50am 58 13 G 19 54° 16% - - 10° 62.3° 54.1° - - 1016.0
4/29 6:40am 59 12 G 18 54° 17% - - 10° 62.3° 54.1° - - 1016.0
4/29 6:30am 58 14 G 20 54° 17% - - 10° 62.3° 54.1° - - 1016.0
4/29 6:20am 59 14 G 22 54° 16% - - 62.3° 54.1° - - 1016.0
4/29 6:10am 58 16 G 26 55° 15% - - 62.3° 54.3° - - 1015.0
4/29 6:00am 58 15 G 22 55° 15% - - 62.3° 54.5° - - 1015.0
4/29 5:50am 57 15 G 22 55° 15% - - 62.3° 54.6° - - 1015.0
4/29 5:40am 59 16 G 24 55° 16% - - 10° 62.3° 54.6° - - 1015.0
4/29 5:30am 59 15 G 23 55° 18% - - 12° 62.3° 54.6° - - 1015.0
4/29 5:20am 57 14 G 22 55° 19% - - 13° 62.3° 54.8° - - 1015.0
4/29 5:10am 57 16 G 22 55° 19% - - 13° 62.3° 55° - - 1015.0
4/29 5:00am 59 15 G 23 55° 18% - - 13° 62.3° 55.1° - - 1015.0
4/29 4:50am 57 16 G 22 55° 18% - - 12° 62.3° 55.3° - - 1015.0
4/29 4:40am 57 16 G 25 56° 17% - - 12° 62.3° 55.3° - - 1015.0
4/29 4:30am 57 17 G 24 56° 17% - - 12° 62.3° 55.6° - - 1014.0
4/29 4:20am 56 16 G 25 56° 18% - - 12° 62.3° 55.6° - - 1014.0
4/29 4:10am 58 18 G 26 56° 17% - - 12° 62.3° 55.8° - - 1014.0
4/29 4:00am 58 18 G 26 56° 17% - - 12° 62.3° 56° - - 1014.0
4/29 3:50am 58 17 G 24 56° 16% - - 11° 62.3° 56.2° - - 1014.0
4/29 3:40am 58 17 G 24 57° 15% - - 10° 62.3° 56.4° - - 1014.0
4/29 3:30am 59 19 G 25 57° 15% - - 62.3° 56.5° - - 1014.0
4/29 3:20am 57 18 G 26 57° 14% - - 62.3° 56.8° - - 1013.0
4/29 3:10am 57 16 G 25 57° 13% - - 62.3° 57° - - 1013.0
4/29 3:00am 57 16 G 24 57° 13% - - 62.3° 57.2° - - 1013.0
4/29 2:50am 59 15 G 23 57° 13% - - 62.3° 57.3° - - 1013.0
4/29 2:40am 61 16 G 23 58° 12% - - 62.3° 57.3° - - 1013.0
4/29 2:30am 61 15 G 20 58° 12% - - 62.3° 57.5° - - 1013.0
4/29 2:20am 62 14 G 20 58° 12% - - 62.3° 57.5° - - 1013.0
4/29 2:10am 62 13 G 21 58° 12% - - 62.3° 57.8° - - 1013.0
4/29 2:00am 58 14 G 22 58° 12% - - 62.3° 58.1° - - 1013.0
4/29 1:50am 56 16 G 22 59° 12% - - 62.3° 58.4° - - 1013.0
4/29 1:40am 56 15 G 22 59° 13% - - 62.3° 58.6° - - 1013.0
4/29 1:30am 58 15 G 19 59° 14% - - 62.3° 58.7° - - 1012.0
4/29 1:20am 57 15 G 23 59° 13% - - 62.3° 59.1° - - 1012.0
4/29 1:10am 57 16 G 22 60° 14% - - 11° 62.3° 59.4° - - 1012.0
4/29 1:00am 55 15 G 21 60° 17% - - 15° 62.3° 59.4° - - 1012.0
4/29 12:50am 58 16 G 21 60° 17% - - 15° 62.3° 59.8° - - 1012.0
4/29 12:40am 60 16 G 20 61° 15% - - 12° 62.3° 60.3° - - 1012.0
4/29 12:30am 55 16 G 24 61° 14% - - 11° 62.3° 60.8° - - 1011.0
4/29 12:20am 55 15 G 28 62° 12% - - 62.3° 61.5° - - 1011.0
4/29 12:10am 53 13 G 22 62° 12% - - 62.3° 61.5° - - 1011.0
4/29 12:00am 58 14 G 21 62° 13% - - 10° 73.8° 51° - - 1011.0
4/28 11:50pm 58 13 G 20 62° 12% - - 10° 73.8° 51° - - 1011.0
4/28 11:40pm 59 13 G 20 62° 12% - - 73.8° 51° - - 1010.0
4/28 11:30pm 57 13 G 19 62° 12% - - 73.8° 51° - - 1010.0
4/28 11:20pm 55 12 G 19 63° 12% - - 73.8° 51° - - 1010.0
4/28 11:10pm 52 11 G 18 62° 12% - - 73.8° 51° - - 1010.0
4/28 11:00pm 56 9 G 17 62° 12% - - 73.8° 51° - - 1010.0
4/28 10:50pm 54 8 G 16 62° 13% - - 10° 73.8° 51° - - 1010.0
4/28 10:40pm 56 7 G 11 61° 15% - - 13° 73.8° 51° - - 1011.0
4/28 10:30pm 175 2 G 6 56° 50% - - 38° 73.8° 51° - - 1012.0
4/28 10:20pm 213 2 G 4 57° 53% - - 39° 73.8° 51° - - 1011.0
4/28 10:10pm 210 1 G 3 56° 52% - - 39° 73.8° 51° - - 1012.0
4/28 10:00pm 191 2 G 3 56° 52% - - 39° 73.8° 51° - - 1011.0
4/28 9:50pm 250 1 G 3 57° 50% - - 39° 73.8° 51° - - 1011.0
4/28 9:40pm 253 2 G 3 57° 50% - - 39° 73.8° 51° - - 1011.0
4/28 9:30pm 219 3 G 5 58° 48% - - 39° 73.8° 51° - - 1011.0
4/28 9:20pm 217 3 G 4 58° 48% - - 39° 73.8° 51° - - 1011.0
4/28 9:10pm 209 4 G 5 59° 47% - - 39° 73.8° 51° - - 1010.0
4/28 9:00pm 254 2 G 3 58° 48% - - 39° 73.8° 51° - - 1010.0
4/28 8:50pm 208 1 G 3 58° 47% - - 38° 73.8° 51° - - 1010.0
4/28 8:40pm 223 3 G 5 59° 46% - - 38° 73.8° 51° - - 1010.0
4/28 8:30pm 228 4 G 8 59° 46% - - 39° 73.8° 51° - - 1009.0
4/28 8:20pm 226 5 G 8 60° 46% - - 39° 73.8° 51° - - 1009.0
4/28 8:10pm 223 6 G 11 60° 46% - - 39° 73.8° 51° - - 1009.0
4/28 8:00pm 230 6 G 10 61° 47% - - 40° 73.8° 51° - - 1008.0
4/28 7:50pm 218 6 G 10 61° 46% - - 40° 73.8° 51° - - 1008.0
4/28 7:40pm 220 6 G 11 62° 45% - - 40° 73.8° 51° - - 1008.0
4/28 7:30pm 223 6 G 12 63° 44% - - 41° 73.8° 51° - - 1007.0
4/28 7:20pm 230 8 G 12 63° 44% - - 41° 73.8° 51° - - 1007.0
4/28 7:10pm 222 9 G 14 64° 43% - - 41° 73.8° 51° - - 1007.0
4/28 7:00pm 222 7 G 12 65° 42% - - 41° 73.8° 51° - - 1006.0
4/28 6:50pm 228 7 G 11 65° 40% - - 41° 73.8° 51° - - 1006.0
4/28 6:40pm 231 9 G 15 66° 39% - - 40° 73.8° 51° - - 1006.0
4/28 6:30pm 233 10 G 17 67° 38% - - 40° 73.8° 51° - - 1006.0
4/28 6:20pm 246 11 G 17 67° 38% - - 41° 73.8° 51° - - 1005.0
4/28 6:10pm 240 11 G 17 68° 38% - - 41° 73.8° 51° - - 1005.0
4/28 6:00pm 248 11 G 16 68° 38% - - 42° 73.8° 51° - - 1005.0